Time;durP1;ratioP1;P1;durP2;ratioP2;P2;SDS_P1;SDS_P2;PMS_P1;PMS_P2;Temp;Humidity;BMP_temperature;BMP_pressure;BME280_temperature;BME280_humidity;BME280_pressure;Samples;Min_cycle;Max_cycle;Signal;HPM_P1;HPM_P2
2022/01/29 00:01:02;;;;;;;3.75;3.45;;;;;;;;;;4849832;29;20404;-92
2022/01/29 00:03:30;;;;;;;4.32;3.30;;;;;;;;;;4833708;29;20064;-92
2022/01/29 00:05:59;;;;;;;4.60;3.95;;;;;;;;;;4850725;29;20065;-92
2022/01/29 00:08:27;;;;;;;6.05;3.38;;;;;;;;;;4848982;29;20053;-92
2022/01/29 00:11:02;;;;;;;5.50;5.03;;;;;;;;;;4819813;29;20392;-92
2022/01/29 00:13:30;;;;;;;3.90;3.28;;;;;;;;;;4819173;29;20042;-92
2022/01/29 00:15:58;;;;;;;5.18;4.10;;;;;;;;;;4850471;29;20042;-92
2022/01/29 00:18:27;;;;;;;5.38;3.85;;;;;;;;;;4818847;29;20061;-92
2022/01/29 00:20:55;;;;;;;5.25;3.30;;;;;;;;;;4849993;29;20408;-91
2022/01/29 00:23:23;;;;;;;3.90;3.60;;;;;;;;;;4830097;29;20077;-91
2022/01/29 00:25:51;;;;;;;6.35;5.75;;;;;;;;;;4831653;29;20054;-92
2022/01/29 00:28:19;;;;;;;3.40;3.10;;;;;;;;;;4831896;29;20047;-91
2022/01/29 00:30:47;;;;;;;10.80;3.67;;;;;;;;;;4830996;29;20054;-91
2022/01/29 00:33:16;;;;;;;6.47;4.20;;;;;;;;;;4830183;29;20507;-91
2022/01/29 00:35:44;;;;;;;3.25;2.90;;;;;;;;;;4812906;29;20054;-92
2022/01/29 00:38:14;;;;;;;6.00;3.75;;;;;;;;;;4829534;29;20066;-91
2022/01/29 00:40:45;;;;;;;6.20;4.38;;;;;;;;;;4797626;29;20050;-92
2022/01/29 00:43:13;;;;;;;5.53;3.78;;;;;;;;;;4829175;29;20062;-91
2022/01/29 00:46:13;;;;;;;5.88;3.67;;;;;;;;;;4826799;29;20061;-91
2022/01/29 00:48:41;;;;;;;4.45;3.35;;;;;;;;;;4828439;29;20067;-91
2022/01/29 00:51:10;;;;;;;6.07;4.43;;;;;;;;;;4812294;29;20050;-92
2022/01/29 00:53:42;;;;;;;4.72;3.90;;;;;;;;;;4827425;29;20059;-91
2022/01/29 00:56:10;;;;;;;5.93;5.03;;;;;;;;;;4826644;29;20050;-92
2022/01/29 00:58:38;;;;;;;3.92;3.63;;;;;;;;;;4827048;29;20050;-91
2022/01/29 01:01:07;;;;;;;4.28;3.88;;;;;;;;;;4826846;29;20042;-91
2022/01/29 01:03:35;;;;;;;6.07;3.20;;;;;;;;;;4827302;29;20057;-91
2022/01/29 01:06:03;;;;;;;4.20;3.90;;;;;;;;;;4811696;29;20603;-91
2022/01/29 01:08:31;;;;;;;7.03;4.55;;;;;;;;;;4825890;29;20058;-91
2022/01/29 01:11:02;;;;;;;6.82;4.10;;;;;;;;;;4828276;29;20524;-92
2022/01/29 01:13:31;;;;;;;8.85;4.05;;;;;;;;;;4810750;29;20505;-91
2022/01/29 01:21:11;;;;;;;4.65;3.40;;;;;;;;;;4793366;29;20047;-91
2022/01/29 01:23:39;;;;;;;4.05;3.75;;;;;;;;;;4805011;29;20494;-92
2022/01/29 01:26:07;;;;;;;4.10;3.17;;;;;;;;;;4808828;29;20055;-91
2022/01/29 01:28:35;;;;;;;6.90;4.43;;;;;;;;;;4808428;29;20513;-92
2022/01/29 01:31:03;;;;;;;11.90;5.65;;;;;;;;;;4793058;29;20054;-91
2022/01/29 01:33:31;;;;;;;3.80;3.58;;;;;;;;;;4808550;29;20050;-91
2022/01/29 01:36:03;;;;;;;4.88;3.95;;;;;;;;;;4819487;29;20481;-92
2022/01/29 01:38:43;;;;;;;6.82;4.35;;;;;;;;;;4844808;29;20053;-91
2022/01/29 01:41:22;;;;;;;4.43;4.03;;;;;;;;;;4844783;29;20392;-91
2022/01/29 01:43:51;;;;;;;6.25;4.05;;;;;;;;;;4844553;29;20069;-91
2022/01/29 01:46:25;;;;;;;6.53;4.28;;;;;;;;;;4844835;29;20049;-92
2022/01/29 01:48:53;;;;;;;4.57;2.78;;;;;;;;;;4844378;29;20046;-91
2022/01/29 01:51:21;;;;;;;4.95;4.50;;;;;;;;;;4844093;29;20054;-91
2022/01/29 01:53:50;;;;;;;12.13;5.68;;;;;;;;;;4844717;29;20499;-91
2022/01/29 01:56:18;;;;;;;5.13;4.60;;;;;;;;;;4809286;29;20043;-91
2022/01/29 01:58:46;;;;;;;4.57;4.18;;;;;;;;;;4844879;29;20049;-92
2022/01/29 02:01:14;;;;;;;4.32;3.90;;;;;;;;;;4843841;29;20057;-91
2022/01/29 02:03:45;;;;;;;10.48;5.63;;;;;;;;;;4844057;29;20046;-91
2022/01/29 02:06:15;;;;;;;3.97;3.60;;;;;;;;;;4844435;29;20050;-91
2022/01/29 02:08:46;;;;;;;9.85;3.83;;;;;;;;;;4827499;29;20061;-91
2022/01/29 02:11:14;;;;;;;4.68;4.22;;;;;;;;;;4844688;29;20429;-91
2022/01/29 02:13:42;;;;;;;13.15;5.18;;;;;;;;;;4843951;29;20073;-92
2022/01/29 02:16:13;;;;;;;4.03;3.53;;;;;;;;;;4844260;29;20054;-91
2022/01/29 02:18:41;;;;;;;9.57;5.38;;;;;;;;;;4844600;29;20065;-91
2022/01/29 02:21:09;;;;;;;4.88;4.50;;;;;;;;;;4827618;29;20056;-91
2022/01/29 02:23:37;;;;;;;7.28;4.22;;;;;;;;;;4843587;29;20404;-92
2022/01/29 02:26:10;;;;;;;6.25;4.60;;;;;;;;;;4844371;29;20058;-91
2022/01/29 02:28:39;;;;;;;5.00;4.55;;;;;;;;;;4807527;29;20470;-90
2022/01/29 02:31:07;;;;;;;4.13;3.72;;;;;;;;;;4807720;29;20055;-92
2022/01/29 02:33:39;;;;;;;6.65;4.95;;;;;;;;;;4838221;29;20045;-92
2022/01/29 02:36:08;;;;;;;8.80;5.07;;;;;;;;;;4843748;29;20057;-91
2022/01/29 02:38:36;;;;;;;6.53;4.05;;;;;;;;;;4827623;29;20045;-91
2022/01/29 02:41:06;;;;;;;6.78;4.82;;;;;;;;;;4843234;29;20054;-91
2022/01/29 02:43:42;;;;;;;5.50;4.10;;;;;;;;;;4827102;29;20396;-90
2022/01/29 02:49:01;;;;;;;5.22;4.80;;;;;;;;;;4843404;29;20065;-91
2022/01/29 02:51:29;;;;;;;4.63;4.20;;;;;;;;;;4843316;29;20061;-91
2022/01/29 02:53:58;;;;;;;5.00;4.35;;;;;;;;;;4843959;29;20050;-91
2022/01/29 02:56:26;;;;;;;8.20;4.40;;;;;;;;;;4843175;29;20492;-91
2022/01/29 02:58:54;;;;;;;5.68;5.03;;;;;;;;;;4810661;29;20493;-92
2022/01/29 03:01:22;;;;;;;6.68;5.93;;;;;;;;;;4825013;29;20042;-91
2022/01/29 03:03:51;;;;;;;6.60;5.85;;;;;;;;;;4842877;29;20053;-91
2022/01/29 03:06:19;;;;;;;5.75;4.32;;;;;;;;;;4791218;29;20512;-91
2022/01/29 03:08:47;;;;;;;8.10;5.55;;;;;;;;;;4794363;29;20043;-90
2022/01/29 03:11:19;;;;;;;3.58;3.28;;;;;;;;;;4842872;29;20061;-93
2022/01/29 03:13:48;;;;;;;5.25;4.25;;;;;;;;;;4841772;29;20046;-91
2022/01/29 03:20:54;;;;;;;10.50;5.85;;;;;;;;;;4842356;29;20042;-91
2022/01/29 03:23:22;;;;;;;5.07;3.90;;;;;;;;;;4825811;29;20133;-89
2022/01/29 03:25:50;;;;;;;12.00;4.60;;;;;;;;;;4843010;29;20081;-90
2022/01/29 03:28:23;;;;;;;6.13;4.40;;;;;;;;;;4842080;29;20050;-90
2022/01/29 03:30:51;;;;;;;5.57;3.85;;;;;;;;;;4843090;29;20378;-90
2022/01/29 03:33:19;;;;;;;5.38;4.10;;;;;;;;;;4842117;29;20488;-91
2022/01/29 03:35:47;;;;;;;5.32;4.05;;;;;;;;;;4842981;29;20061;-90
2022/01/29 03:38:15;;;;;;;4.15;3.85;;;;;;;;;;4843440;29;20053;-91
2022/01/29 03:40:47;;;;;;;4.55;3.83;;;;;;;;;;4811013;29;20374;-90
2022/01/29 03:43:24;;;;;;;11.43;5.85;;;;;;;;;;4843578;29;20495;-90
2022/01/29 03:49:53;;;;;;;5.50;4.50;;;;;;;;;;4817335;29;20039;-91
2022/01/29 03:52:21;;;;;;;6.18;3.20;;;;;;;;;;4808553;29;20046;-90
2022/01/29 03:54:49;;;;;;;6.90;4.80;;;;;;;;;;4824783;29;20528;-91
2022/01/29 03:57:17;;;;;;;4.95;4.55;;;;;;;;;;4821558;29;20050;-91
2022/01/29 03:59:45;;;;;;;4.30;3.90;;;;;;;;;;4842354;29;20053;-91
2022/01/29 04:02:13;;;;;;;7.07;3.60;;;;;;;;;;4843002;29;20049;-91
2022/01/29 04:04:42;;;;;;;5.30;4.22;;;;;;;;;;4842873;29;20065;-92
2022/01/29 04:07:11;;;;;;;7.32;3.17;;;;;;;;;;4826970;29;20058;-90
2022/01/29 04:09:46;;;;;;;4.85;3.83;;;;;;;;;;4842601;29;20057;-91
2022/01/29 04:12:15;;;;;;;11.43;5.18;;;;;;;;;;4845051;29;20058;-91
2022/01/29 04:14:43;;;;;;;5.32;4.32;;;;;;;;;;4830483;29;20058;-91
2022/01/29 04:17:11;;;;;;;6.82;3.95;;;;;;;;;;4829780;29;20046;-91
2022/01/29 04:19:40;;;;;;;5.10;4.28;;;;;;;;;;4845426;29;20065;-91
2022/01/29 04:22:08;;;;;;;2.85;2.67;;;;;;;;;;4846098;29;20057;-90
2022/01/29 04:24:36;;;;;;;8.15;4.10;;;;;;;;;;4845499;29;20065;-91
2022/01/29 04:27:13;;;;;;;3.10;2.80;;;;;;;;;;4845832;29;20056;-91
2022/01/29 04:29:53;;;;;;;8.15;4.63;;;;;;;;;;4845421;29;20408;-90
2022/01/29 04:32:34;;;;;;;8.27;6.68;;;;;;;;;;4845697;29;20049;-90
2022/01/29 04:35:03;;;;;;;3.20;2.85;;;;;;;;;;4846034;29;20054;-90
2022/01/29 04:37:31;;;;;;;5.65;3.47;;;;;;;;;;4845667;29;20050;-90
2022/01/29 04:39:59;;;;;;;5.43;3.85;;;;;;;;;;4814416;29;20527;-90
2022/01/29 04:42:27;;;;;;;4.82;3.75;;;;;;;;;;4845754;29;20058;-91
2022/01/29 04:45:28;;;;;;;5.53;5.00;;;;;;;;;;4845236;29;20061;-91
2022/01/29 04:47:57;;;;;;;7.50;4.35;;;;;;;;;;4827017;29;20054;-91
2022/01/29 04:50:28;;;;;;;3.97;3.65;;;;;;;;;;4828289;29;20042;-91
2022/01/29 04:52:56;;;;;;;5.80;3.35;;;;;;;;;;4845286;29;20058;-91
2022/01/29 04:55:24;;;;;;;5.13;4.75;;;;;;;;;;4845279;29;20054;-90
2022/01/29 04:57:52;;;;;;;4.82;3.50;;;;;;;;;;4845710;29;20046;-90
2022/01/29 05:00:21;;;;;;;5.10;4.35;;;;;;;;;;4844862;29;20053;-90
2022/01/29 05:02:50;;;;;;;13.25;5.00;;;;;;;;;;4845182;29;20050;-91
2022/01/29 05:05:18;;;;;;;4.45;3.97;;;;;;;;;;4828457;29;20061;-91
2022/01/29 05:07:46;;;;;;;5.82;4.47;;;;;;;;;;4844508;29;20050;-90
2022/01/29 05:10:15;;;;;;;7.07;4.90;;;;;;;;;;4845436;29;20121;-91
2022/01/29 05:12:53;;;;;;;5.43;4.75;;;;;;;;;;4828704;29;20046;-91
2022/01/29 05:29:04;;;;;;;6.28;4.75;;;;;;;;;;4844620;29;20054;-90
2022/01/29 05:31:33;;;;;;;8.52;3.38;;;;;;;;;;4828151;29;20050;-91
2022/01/29 05:34:01;;;;;;;6.60;4.40;;;;;;;;;;4828519;29;20057;-91
2022/01/29 05:36:29;;;;;;;4.47;4.07;;;;;;;;;;4843515;29;20051;-90
2022/01/29 05:38:58;;;;;;;8.20;7.45;;;;;;;;;;4844129;29;20633;-90
2022/01/29 05:41:28;;;;;;;5.78;3.20;;;;;;;;;;4827383;29;20520;-90
2022/01/29 05:43:56;;;;;;;4.32;3.90;;;;;;;;;;4842572;29;20397;-91
2022/01/29 05:46:24;;;;;;;4.20;3.80;;;;;;;;;;4827296;29;20046;-90
2022/01/29 05:48:52;;;;;;;6.65;4.55;;;;;;;;;;4842578;29;20050;-90
2022/01/29 05:51:21;;;;;;;4.55;3.67;;;;;;;;;;4842516;29;20054;-89
2022/01/29 05:53:52;;;;;;;5.32;3.97;;;;;;;;;;4821182;29;20121;-90
2022/01/29 05:56:20;;;;;;;12.60;4.68;;;;;;;;;;4831414;29;20054;-89
2022/01/29 05:58:48;;;;;;;5.88;3.67;;;;;;;;;;4823465;29;20057;-90
2022/01/29 06:01:16;;;;;;;4.55;3.90;;;;;;;;;;4840824;29;20065;-90
2022/01/29 06:03:45;;;;;;;5.28;4.30;;;;;;;;;;4841945;29;20054;-91
2022/01/29 06:06:13;;;;;;;7.28;5.68;;;;;;;;;;4814575;29;20061;-84
2022/01/29 06:08:41;;;;;;;5.30;4.55;;;;;;;;;;4819592;29;20054;-84
2022/01/29 06:11:09;;;;;;;9.18;4.78;;;;;;;;;;4836768;29;20046;-84
2022/01/29 06:13:37;;;;;;;4.72;4.32;;;;;;;;;;4823441;29;20631;-84
2022/01/29 06:16:06;;;;;;;6.30;4.30;;;;;;;;;;4819292;29;20519;-84
2022/01/29 06:18:34;;;;;;;4.55;4.10;;;;;;;;;;4836709;29;20052;-84
2022/01/29 06:21:04;;;;;;;4.93;4.43;;;;;;;;;;4835865;29;20050;-84
2022/01/29 06:23:34;;;;;;;8.60;4.70;;;;;;;;;;4816344;29;20069;-84
2022/01/29 06:26:05;;;;;;;5.60;4.85;;;;;;;;;;4812993;29;20058;-84
2022/01/29 06:28:33;;;;;;;4.50;3.47;;;;;;;;;;4817224;29;20057;-84
2022/01/29 06:31:01;;;;;;;11.43;6.22;;;;;;;;;;4798415;29;20051;-84
2022/01/29 06:33:29;;;;;;;5.28;4.80;;;;;;;;;;4815115;29;20046;-84
2022/01/29 06:35:58;;;;;;;4.03;3.72;;;;;;;;;;4817706;29;20092;-84
2022/01/29 06:38:27;;;;;;;4.63;4.28;;;;;;;;;;4816490;29;20053;-84
2022/01/29 06:40:58;;;;;;;7.13;4.95;;;;;;;;;;4816235;29;20058;-83
2022/01/29 06:43:28;;;;;;;8.35;4.63;;;;;;;;;;4807834;29;20509;-84
2022/01/29 06:45:56;;;;;;;11.75;4.43;;;;;;;;;;4801446;29;20485;-84
2022/01/29 06:48:25;;;;;;;5.82;5.28;;;;;;;;;;4816001;29;20724;-84
2022/01/29 06:50:53;;;;;;;6.30;5.80;;;;;;;;;;4815898;29;20063;-84
2022/01/29 06:53:21;;;;;;;6.25;3.80;;;;;;;;;;4811332;29;20417;-84
2022/01/29 06:55:49;;;;;;;9.00;5.50;;;;;;;;;;4800821;29;20513;-84
2022/01/29 06:58:16;;;;;;;4.65;3.60;;;;;;;;;;4800923;29;20050;-84
2022/01/29 07:01:05;;;;;;;4.15;3.78;;;;;;;;;;4812341;29;20050;-84
2022/01/29 07:03:33;;;;;;;8.55;5.00;;;;;;;;;;4816035;29;20501;-84
2022/01/29 07:06:04;;;;;;;6.07;4.00;;;;;;;;;;4814338;29;20066;-84
2022/01/29 07:08:37;;;;;;;4.03;3.67;;;;;;;;;;4814204;29;20061;-84
2022/01/29 07:11:05;;;;;;;6.85;4.22;;;;;;;;;;4813897;29;20043;-84
2022/01/29 07:13:34;;;;;;;6.38;3.88;;;;;;;;;;4816593;29;20050;-84
2022/01/29 07:16:02;;;;;;;6.43;4.00;;;;;;;;;;4811556;29;20057;-84
2022/01/29 07:18:30;;;;;;;4.10;3.70;;;;;;;;;;4801195;29;20101;-84
2022/01/29 07:20:58;;;;;;;7.22;5.05;;;;;;;;;;4815374;29;20047;-83
2022/01/29 07:23:27;;;;;;;8.75;4.47;;;;;;;;;;4815394;29;20062;-83
2022/01/29 07:25:55;;;;;;;4.30;3.95;;;;;;;;;;4797885;29;20050;-84
2022/01/29 07:28:25;;;;;;;5.18;3.50;;;;;;;;;;4799208;29;20437;-83
2022/01/29 07:30:53;;;;;;;7.43;3.80;;;;;;;;;;4800962;29;20062;-84
2022/01/29 07:33:21;;;;;;;6.72;3.03;;;;;;;;;;4811185;29;20046;-85
2022/01/29 07:35:53;;;;;;;3.92;3.47;;;;;;;;;;4774865;29;20071;-85
2022/01/29 07:38:24;;;;;;;3.50;2.85;;;;;;;;;;4794150;29;20065;-85
2022/01/29 07:40:52;;;;;;;3.80;2.30;;;;;;;;;;4779175;29;20061;-85
2022/01/29 07:43:20;;;;;;;4.35;3.90;;;;;;;;;;4805551;29;20066;-85
2022/01/29 07:45:48;;;;;;;6.93;4.32;;;;;;;;;;4816774;29;20062;-85
2022/01/29 07:48:16;;;;;;;3.47;2.83;;;;;;;;;;4819072;29;20061;-85
2022/01/29 07:50:45;;;;;;;4.07;2.75;;;;;;;;;;4789427;29;20536;-85
2022/01/29 07:53:13;;;;;;;2.13;2.03;;;;;;;;;;4801953;29;20053;-85
2022/01/29 07:55:41;;;;;;;3.13;2.38;;;;;;;;;;4814439;29;20416;-85
2022/01/29 07:58:10;;;;;;;2.88;2.65;;;;;;;;;;4788940;29;20061;-85
2022/01/29 08:00:38;;;;;;;4.70;2.28;;;;;;;;;;4819206;29;20066;-84
2022/01/29 08:03:06;;;;;;;2.17;2.08;;;;;;;;;;4803970;29;20058;-85
2022/01/29 08:05:35;;;;;;;2.15;1.95;;;;;;;;;;4812723;29;20406;-85
2022/01/29 08:08:03;;;;;;;2.55;2.38;;;;;;;;;;4792603;29;20050;-85
2022/01/29 08:10:32;;;;;;;2.17;1.98;;;;;;;;;;4817636;29;20058;-85
2022/01/29 08:13:00;;;;;;;4.63;2.17;;;;;;;;;;4778012;29;20051;-86
2022/01/29 08:15:28;;;;;;;3.38;3.08;;;;;;;;;;4812876;29;20179;-86
2022/01/29 08:17:56;;;;;;;3.40;2.42;;;;;;;;;;4801694;29;20133;-86
2022/01/29 08:20:24;;;;;;;3.45;3.15;;;;;;;;;;4813511;29;20046;-86
2022/01/29 08:22:52;;;;;;;1.63;1.50;;;;;;;;;;4804583;29;20568;-84
2022/01/29 08:25:20;;;;;;;1.88;1.77;;;;;;;;;;4808713;29;20053;-86
2022/01/29 08:27:48;;;;;;;2.03;1.80;;;;;;;;;;4815522;29;20500;-86
2022/01/29 08:30:16;;;;;;;1.45;1.45;;;;;;;;;;4816675;29;20825;-86
2022/01/29 08:32:44;;;;;;;2.13;2.00;;;;;;;;;;4803431;29;20050;-86
2022/01/29 08:35:15;;;;;;;3.70;3.38;;;;;;;;;;4803794;29;20061;-86
2022/01/29 08:37:43;;;;;;;1.98;1.88;;;;;;;;;;4815674;29;20058;-86
2022/01/29 08:40:11;;;;;;;2.17;1.98;;;;;;;;;;4817728;29;20077;-86
2022/01/29 08:42:40;;;;;;;1.80;1.70;;;;;;;;;;4803396;29;20054;-86
2022/01/29 08:45:08;;;;;;;2.55;2.45;;;;;;;;;;4802418;29;20051;-86
2022/01/29 08:47:40;;;;;;;1.77;1.67;;;;;;;;;;4800862;29;20062;-86
2022/01/29 08:50:09;;;;;;;1.60;1.50;;;;;;;;;;4818465;29;20054;-86
2022/01/29 08:52:37;;;;;;;2.90;2.65;;;;;;;;;;4802995;29;20070;-85
2022/01/29 08:55:07;;;;;;;2.25;2.13;;;;;;;;;;4803179;29;20058;-86
2022/01/29 08:57:35;;;;;;;3.17;1.70;;;;;;;;;;4812358;29;20043;-86
2022/01/29 09:00:07;;;;;;;2.00;1.88;;;;;;;;;;4801644;29;20038;-86
2022/01/29 09:02:35;;;;;;;2.28;2.08;;;;;;;;;;4800688;29;20058;-85
2022/01/29 09:05:03;;;;;;;3.63;2.10;;;;;;;;;;4806883;29;20043;-85
2022/01/29 09:07:31;;;;;;;2.55;1.73;;;;;;;;;;4806466;29;20063;-85
2022/01/29 09:09:59;;;;;;;2.85;2.05;;;;;;;;;;4806075;29;20051;-81
2022/01/29 09:12:27;;;;;;;1.67;1.58;;;;;;;;;;4807953;29;20058;-82
2022/01/29 09:14:55;;;;;;;1.83;1.73;;;;;;;;;;4814055;29;20050;-82
2022/01/29 09:17:23;;;;;;;2.92;1.95;;;;;;;;;;4815911;29;20421;-82
2022/01/29 09:19:51;;;;;;;3.03;2.78;;;;;;;;;;4816985;29;20050;-82
2022/01/29 09:22:19;;;;;;;2.10;1.90;;;;;;;;;;4822992;29;20054;-82
2022/01/29 09:24:47;;;;;;;1.75;1.60;;;;;;;;;;4820414;29;20054;-82
2022/01/29 09:27:15;;;;;;;3.95;1.92;;;;;;;;;;4801201;29;20069;-82
2022/01/29 09:29:43;;;;;;;2.20;2.10;;;;;;;;;;4789446;29;20495;-83
2022/01/29 09:32:12;;;;;;;2.35;2.22;;;;;;;;;;4794625;29;20488;-84
2022/01/29 09:35:01;;;;;;;4.10;1.92;;;;;;;;;;4838096;29;20049;-88
2022/01/29 09:37:46;;;;;;;1.83;1.73;;;;;;;;;;4779610;29;20046;-87
2022/01/29 09:41:02;;;;;;;1.70;1.60;;;;;;;;;;4821356;29;20046;-90
2022/01/29 09:47:25;;;;;;;2.40;2.17;;;;;;;;;;4750076;30;20112;-87
2022/01/29 10:01:40;;;;;;;;;;;;;;;;;;4727067;30;20060;-90
2022/01/29 10:04:25;;;;;;;1.70;1.60;;;;;;;;;;4700406;30;19934;-87
2022/01/29 10:07:14;;;;;;;2.15;1.90;;;;;;;;;;4728658;30;20048;-85
2022/01/29 10:10:03;;;;;;;;;;;;;;;;;;;;;
2022/01/29 10:12:57;;;;;;;2.22;1.90;;;;;;;;;;4709908;30;20079;-87
2022/01/29 10:16:13;;;;;;;2.22;2.05;;;;;;;;;;4685410;30;20060;-87
2022/01/29 10:24:01;;;;;;;;;;;;;;;;;;;;;
2022/01/29 10:34:23;;;;;;;1.30;1.30;;;;;;;;;;3041003;27;20148;-82
2022/01/29 10:40:34;;;;;;;1.40;1.30;;;;;;;;;;4795337;29;20157;-82
2022/01/29 10:43:15;;;;;;;2.13;1.80;;;;;;;;;;4797755;29;20064;-84
2022/01/29 10:45:44;;;;;;;3.90;1.60;;;;;;;;;;4784090;29;20054;-82
2022/01/29 10:48:43;;;;;;;2.88;1.80;;;;;;;;;;4798616;29;20045;-87
2022/01/29 10:51:11;;;;;;;1.60;1.50;;;;;;;;;;4777494;30;20056;-85
2022/01/29 10:53:40;;;;;;;1.67;1.58;;;;;;;;;;4768416;29;20058;-86
2022/01/29 10:56:08;;;;;;;2.28;2.08;;;;;;;;;;4763188;30;20820;-87
2022/01/29 10:58:40;;;;;;;1.40;1.40;;;;;;;;;;4782158;30;20059;-82
2022/01/29 11:01:28;;;;;;;1.30;1.20;;;;;;;;;;4766310;29;20070;-84
2022/01/29 11:03:56;;;;;;;1.95;1.50;;;;;;;;;;4780244;29;20135;-86
2022/01/29 11:06:33;;;;;;;1.67;1.58;;;;;;;;;;4782373;30;20070;-84
2022/01/29 11:09:03;;;;;;;1.25;1.25;;;;;;;;;;4775500;29;20055;-81
2022/01/29 11:11:31;;;;;;;0.90;0.90;;;;;;;;;;4780155;30;20058;-85
2022/01/29 11:14:13;;;;;;;1.10;1.10;;;;;;;;;;4763543;30;20063;-86
2022/01/29 11:16:46;;;;;;;0.93;0.93;;;;;;;;;;4773174;30;20062;-85
2022/01/29 11:19:16;;;;;;;1.50;1.42;;;;;;;;;;4765050;30;20067;-86
2022/01/29 11:21:46;;;;;;;1.70;1.60;;;;;;;;;;4772106;30;20051;-83
2022/01/29 11:24:18;;;;;;;1.10;1.10;;;;;;;;;;4762886;29;20059;-83
2022/01/29 11:26:46;;;;;;;1.45;1.40;;;;;;;;;;4769837;30;20059;-84
2022/01/29 11:29:23;;;;;;;1.20;1.10;;;;;;;;;;4764432;30;20051;-82
2022/01/29 11:32:18;;;;;;;1.13;1.10;;;;;;;;;;4765441;30;20051;-81
2022/01/29 11:35:13;;;;;;;1.27;1.17;;;;;;;;;;4768759;30;20062;-81
2022/01/29 11:37:43;;;;;;;0.70;0.70;;;;;;;;;;4738376;30;20055;-84
2022/01/29 11:40:11;;;;;;;0.75;0.75;;;;;;;;;;4765245;29;20047;-80
2022/01/29 11:42:51;;;;;;;0.80;0.80;;;;;;;;;;4771528;30;20795;-82
2022/01/29 11:45:36;;;;;;;1.30;1.30;;;;;;;;;;4763041;30;20793;-85
2022/01/29 11:48:05;;;;;;;1.20;1.20;;;;;;;;;;4761687;30;20414;-87
2022/01/29 11:50:33;;;;;;;1.00;1.00;;;;;;;;;;4763708;30;20108;-83
2022/01/29 11:53:03;;;;;;;0.90;0.90;;;;;;;;;;4762835;30;20403;-85
2022/01/29 11:56:03;;;;;;;1.45;1.27;;;;;;;;;;4747022;30;20100;-85
2022/01/29 11:58:31;;;;;;;1.17;1.08;;;;;;;;;;4737757;30;20082;-82
2022/01/29 12:01:00;;;;;;;0.80;0.80;;;;;;;;;;4775404;30;20055;-81
2022/01/29 12:03:43;;;;;;;1.23;1.23;;;;;;;;;;4753857;30;20067;-81
2022/01/29 12:09:07;;;;;;;1.85;1.10;;;;;;;;;;4773470;30;20411;-82
2022/01/29 12:11:41;;;;;;;1.60;1.50;;;;;;;;;;4772474;29;20048;-82
2022/01/29 12:14:16;;;;;;;1.10;1.00;;;;;;;;;;4772834;30;20048;-83
2022/01/29 12:16:54;;;;;;;1.17;1.10;;;;;;;;;;4772514;29;20052;-81
2022/01/29 12:19:39;;;;;;;1.00;1.00;;;;;;;;;;4780551;30;20700;-83
2022/01/29 12:22:10;;;;;;;1.08;0.90;;;;;;;;;;4781195;30;20534;-81
2022/01/29 12:24:39;;;;;;;0.80;0.80;;;;;;;;;;4771697;29;20055;-81
2022/01/29 12:27:08;;;;;;;0.90;0.90;;;;;;;;;;4779538;30;20059;-81
2022/01/29 12:29:36;;;;;;;0.95;0.95;;;;;;;;;;4765783;29;20055;-82
2022/01/29 12:32:04;;;;;;;1.40;1.10;;;;;;;;;;4766249;30;20055;-82
2022/01/29 12:34:37;;;;;;;1.75;1.65;;;;;;;;;;4771585;30;20047;-83
2022/01/29 12:37:13;;;;;;;0.82;0.82;;;;;;;;;;4767276;30;20059;-84
2022/01/29 12:39:45;;;;;;;1.40;1.30;;;;;;;;;;4771024;29;20077;-83
2022/01/29 12:44:42;;;;;;;1.00;1.00;;;;;;;;;;4782647;29;20051;-82
2022/01/29 12:47:24;;;;;;;1.10;1.10;;;;;;;;;;4767141;30;20052;-83
2022/01/29 12:49:52;;;;;;;1.33;1.23;;;;;;;;;;4753019;30;20063;-84
2022/01/29 12:52:21;;;;;;;0.70;0.70;;;;;;;;;;4753617;30;20082;-83
2022/01/29 12:54:52;;;;;;;1.35;1.25;;;;;;;;;;4769371;30;20062;-86
2022/01/29 12:57:21;;;;;;;2.95;1.00;;;;;;;;;;4763649;30;20056;-87
2022/01/29 12:59:49;;;;;;;3.53;1.10;;;;;;;;;;4752090;30;20063;-85
2022/01/29 13:02:38;;;;;;;0.80;0.80;;;;;;;;;;4765991;30;20510;-84
2022/01/29 13:05:07;;;;;;;1.02;1.02;;;;;;;;;;4783036;30;20051;-88
2022/01/29 13:07:36;;;;;;;1.42;1.33;;;;;;;;;;4767693;29;20068;-86
2022/01/29 13:10:05;;;;;;;0.80;0.80;;;;;;;;;;4768760;30;20056;-90
2022/01/29 13:12:40;;;;;;;1.02;1.02;;;;;;;;;;4754020;30;20494;-85
2022/01/29 13:15:10;;;;;;;1.23;1.02;;;;;;;;;;4767901;30;20416;-89
2022/01/29 13:17:42;;;;;;;1.35;1.25;;;;;;;;;;4768596;29;20498;-85
2022/01/29 13:20:12;;;;;;;1.20;0.82;;;;;;;;;;4769637;30;20066;-88
2022/01/29 13:22:42;;;;;;;1.73;1.45;;;;;;;;;;4756549;30;20063;-86
2022/01/29 13:25:12;;;;;;;0.85;0.85;;;;;;;;;;4760288;30;20082;-86
2022/01/29 13:27:42;;;;;;;0.88;0.88;;;;;;;;;;4752288;30;20133;-79
2022/01/29 13:30:21;;;;;;;1.25;1.00;;;;;;;;;;4752576;30;20055;-80
2022/01/29 13:32:50;;;;;;;2.13;1.23;;;;;;;;;;4768492;30;20578;-81
2022/01/29 13:35:21;;;;;;;0.98;0.98;;;;;;;;;;4773719;30;20147;-80
2022/01/29 13:37:49;;;;;;;;;;;;;;;;;;4770031;30;20055;-82
2022/01/29 13:40:19;;;;;;;0.93;0.93;;;;;;;;;;4786192;30;19936;-80
2022/01/29 13:42:57;;;;;;;1.45;1.13;;;;;;;;;;4786314;29;20059;-79
2022/01/29 13:45:25;;;;;;;0.70;0.70;;;;;;;;;;4786123;30;20489;-79
2022/01/29 13:48:02;;;;;;;1.17;1.13;;;;;;;;;;4785984;29;20066;-81
2022/01/29 13:50:32;;;;;;;1.13;1.13;;;;;;;;;;4746374;30;20062;-82
2022/01/29 13:53:01;;;;;;;0.80;0.80;;;;;;;;;;4764074;30;20059;-80
2022/01/29 13:55:30;;;;;;;3.25;1.23;;;;;;;;;;4734581;30;20059;-81
2022/01/29 13:58:01;;;;;;;1.27;1.00;;;;;;;;;;4762099;30;20491;-77
2022/01/29 14:00:49;;;;;;;1.50;1.10;;;;;;;;;;4766388;30;20048;-81
2022/01/29 14:03:19;;;;;;;0.90;0.90;;;;;;;;;;4768440;30;20052;-81
2022/01/29 14:05:47;;;;;;;1.13;1.10;;;;;;;;;;4767500;30;20059;-82
2022/01/29 14:08:16;;;;;;;0.93;0.93;;;;;;;;;;4767210;30;20410;-83
2022/01/29 14:10:44;;;;;;;2.70;0.90;;;;;;;;;;4768286;30;20410;-79
2022/01/29 14:13:12;;;;;;;0.88;0.88;;;;;;;;;;4767250;29;20056;-81
2022/01/29 14:15:43;;;;;;;0.80;0.80;;;;;;;;;;4768119;30;20047;-79
2022/01/29 14:18:11;;;;;;;1.00;1.00;;;;;;;;;;4767872;30;20121;-79
2022/01/29 14:20:39;;;;;;;1.27;1.27;;;;;;;;;;4751867;30;20440;-80
2022/01/29 14:23:07;;;;;;;0.85;0.70;;;;;;;;;;4757702;30;20055;-80
2022/01/29 14:25:35;;;;;;;0.80;0.80;;;;;;;;;;4756086;30;20052;-80
2022/01/29 14:28:03;;;;;;;0.95;0.95;;;;;;;;;;4759279;30;20058;-81
2022/01/29 14:30:31;;;;;;;0.80;0.80;;;;;;;;;;4759642;30;20498;-79
2022/01/29 14:32:59;;;;;;;1.27;1.00;;;;;;;;;;4749856;30;20063;-80
2022/01/29 14:35:28;;;;;;;3.33;0.98;;;;;;;;;;4759897;30;20058;-80
2022/01/29 14:37:56;;;;;;;2.53;1.17;;;;;;;;;;4767195;30;20067;-81
2022/01/29 14:40:24;;;;;;;1.40;1.35;;;;;;;;;;4767458;30;20067;-80
2022/01/29 14:42:52;;;;;;;1.42;1.33;;;;;;;;;;4767814;30;20048;-80
2022/01/29 14:45:26;;;;;;;2.05;0.90;;;;;;;;;;4766765;30;20060;-79
2022/01/29 14:47:57;;;;;;;1.13;1.05;;;;;;;;;;4767353;30;20510;-80
2022/01/29 14:50:28;;;;;;;1.13;1.02;;;;;;;;;;4751595;30;20063;-80
2022/01/29 14:52:56;;;;;;;0.93;0.80;;;;;;;;;;4767229;30;20056;-81
2022/01/29 14:55:24;;;;;;;1.80;1.70;;;;;;;;;;4766630;30;20428;-81
2022/01/29 14:57:52;;;;;;;1.25;1.20;;;;;;;;;;4766942;30;20407;-79
2022/01/29 15:00:20;;;;;;;1.50;1.35;;;;;;;;;;4766907;29;20066;-80
2022/01/29 15:02:48;;;;;;;0.80;0.80;;;;;;;;;;4767495;30;20056;-80
2022/01/29 15:05:16;;;;;;;1.33;1.02;;;;;;;;;;4766883;30;20051;-80
2022/01/29 15:07:44;;;;;;;0.90;0.90;;;;;;;;;;4763229;30;20064;-80
2022/01/29 15:10:12;;;;;;;0.93;0.93;;;;;;;;;;4749341;30;20060;-79
2022/01/29 15:12:41;;;;;;;1.33;1.20;;;;;;;;;;4747902;30;20052;-80
2022/01/29 15:15:09;;;;;;;1.05;1.05;;;;;;;;;;4749257;30;20056;-82
2022/01/29 15:17:37;;;;;;;1.50;1.40;;;;;;;;;;4749149;30;20056;-80
2022/01/29 15:20:07;;;;;;;1.73;1.63;;;;;;;;;;4732935;30;20048;-81
2022/01/29 15:22:38;;;;;;;1.55;1.25;;;;;;;;;;4764439;30;20063;-81
2022/01/29 15:25:07;;;;;;;1.98;1.75;;;;;;;;;;4766657;30;20063;-80
2022/01/29 15:27:35;;;;;;;1.20;1.20;;;;;;;;;;4767045;30;20506;-79
2022/01/29 15:30:09;;;;;;;5.60;2.15;;;;;;;;;;4764995;30;20082;-82
2022/01/29 15:32:37;;;;;;;1.58;1.48;;;;;;;;;;4750746;30;20063;-80
2022/01/29 15:38:17;;;;;;;8.30;1.75;;;;;;;;;;4801984;29;20050;-80
2022/01/29 15:40:46;;;;;;;1.92;1.83;;;;;;;;;;4802625;29;20051;-84
2022/01/29 15:43:15;;;;;;;2.20;1.10;;;;;;;;;;4785871;29;20638;-82
2022/01/29 15:45:44;;;;;;;2.67;2.10;;;;;;;;;;4805961;29;20047;-80
2022/01/29 15:48:13;;;;;;;2.95;1.65;;;;;;;;;;4817887;29;20050;-84
2022/01/29 15:50:41;;;;;;;2.10;1.90;;;;;;;;;;4786830;29;20493;-84
2022/01/29 15:53:11;;;;;;;2.00;1.80;;;;;;;;;;4794685;29;20061;-84
2022/01/29 15:55:41;;;;;;;1.75;1.65;;;;;;;;;;4804473;29;20058;-80
2022/01/29 15:58:14;;;;;;;3.38;2.10;;;;;;;;;;4803834;29;20055;-82
2022/01/29 16:00:43;;;;;;;3.17;1.65;;;;;;;;;;4806810;29;20055;-85
2022/01/29 16:03:11;;;;;;;2.35;2.20;;;;;;;;;;4804025;29;20628;-87
2022/01/29 16:05:39;;;;;;;2.17;1.67;;;;;;;;;;4790565;29;20502;-86
2022/01/29 16:08:07;;;;;;;1.83;1.73;;;;;;;;;;4772792;29;20054;-84
2022/01/29 16:10:35;;;;;;;1.88;1.70;;;;;;;;;;4789976;29;20058;-83
2022/01/29 16:13:03;;;;;;;2.55;2.35;;;;;;;;;;4805933;29;20055;-83
2022/01/29 16:15:36;;;;;;;2.65;2.45;;;;;;;;;;4788760;29;20063;-86
2022/01/29 16:18:04;;;;;;;2.22;2.05;;;;;;;;;;4806004;29;20066;-85